AirNav   Air Wisconsin pilot careers
 
 323 users online  

10G Holmes County Airport
Millersburg, Ohio, USA

GOING TO MILLERSBURG?


FAA INFORMATION EFFECTIVE 26 APRIL 2018

Location

FAA Identifier: 10G
Lat/Long: 40-32-12.1245N / 081-57-21.3882W
40-32.202075N / 081-57.356470W
40.5367013 / -81.9559412
(estimated)
Elevation: 1226.5 ft. / 373.8 m (surveyed)
Variation: 08W (2015)
From city: 2 miles SW of MILLERSBURG, OH
Time zone: UTC -4 (UTC -5 during Standard Time)
Zip code: 44654

Airport Operations

Airport use: Open to the public
Activation date: 03/1962
Control tower: no
ARTCC: INDIANAPOLIS CENTER
FSS: CLEVELAND FLIGHT SERVICE STATION
NOTAMs facility: CLE (NOTAM-D service available)
Attendance: MON-FRI 0800-1900, ALL SAT 1000-1800, ALL SUN 1230-1700
Wind indicator: lighted
Segmented circle: no
Lights: ACTVT MIRL RY 09/27, PAPI RY 27 AND REIL RYS 09 & 27 - 123.4.
Beacon: white-green (lighted land airport)
Operates sunset to sunrise.

Airport Communications

CTAF/UNICOM: 123.0
WX AWOS-3: 128.325 (330-674-6279)
WX AWOS-3 at I40 (14 nm S): 118.875 (740-295-7370)
  • APCH/DEP SVC PRVDD BY INDIANAPOLIS ARTCC ON FREQS 124.45/370.9 (ZANESVILLE RCAG).

Nearby radio navigation aids

VOR radial/distance  VOR name  Freq  Var
TVTr062/9.1TIVERTON VOR/DME116.5003W
BSVr247/26.8BRIGGS VOR/DME112.4004W
CTWr317/28.6NEWCOMERSTOWN VOR/DME111.8007W
MFDr128/35.1MANSFIELD VORTAC108.8003W
ZZVr001/35.9ZANESVILLE VOR/DME111.4006W
APEr057/37.0APPLETON VORTAC116.7006W

 
NDB name  Hdg/Dist  Freq  Var  ID
NEWARK043/38.552406WHEH .... . ....

Airport Services

Fuel available: 100LL JET-A+
Parking: hangars and tiedowns
Airframe service: MAJOR
Powerplant service: MAJOR
Bottled oxygen: HIGH
Bulk oxygen: NONE

Runway Information

Runway 9/27

Dimensions: 4400 x 75 ft. / 1341 x 23 m
Surface: asphalt, in good condition
Weight bearing capacity: 
Single wheel: 14.0
Double wheel: 25.0
Runway edge lights: medium intensity
RUNWAY 9  RUNWAY 27
Latitude: 40-32.182148N40-32.222002N
Longitude: 081-57.830652W081-56.882287W
Elevation: 1226.5 ft.1183.2 ft.
Gradient: 1.0%1.0%
Traffic pattern: leftleft
Runway heading: 095 magnetic, 087 true275 magnetic, 267 true
Markings: nonprecision, in good conditionnonprecision, in good condition
Visual slope indicator: 2-light PAPI on left (3.00 degrees glide path)
Runway end identifier lights: yesyes
Touchdown point: yes, no lightsyes, no lights
Obstructions: 60 ft. trees, 1425 ft. from runway, 325 ft. right of centerline, 20:1 slope to clearnone

Airport Ownership and Management from official FAA records

Ownership: Publicly-owned
Owner: HOLMES CO ARPT AUTH
10 SOUTH CLAY ST
MILLERSBURG, OH 44654
Phone (330) 674-0674
Manager: LARRY CLARK
4501 TWP RD 307
MILLERSBURG, OH 44654
Phone 330-674-0674
AMGR CELL: 330-231-3715

Airport Operational Statistics

Aircraft based on the field: 15
Single engine airplanes: 11
Multi engine airplanes: 3
Jet airplanes: 1
    
Aircraft operations: avg 59/day *
70% local general aviation
23% transient general aviation
5% military
2% air taxi
* for 12-month period ending 12 August 2016

Additional Remarks

DEER ON & INVOF ARPT.

Instrument Procedures

NOTE: All procedures below are presented as PDF files. If you need a reader for these files, you should download the free Adobe Reader.

NOT FOR NAVIGATION. Please procure official charts for flight.
FAA instrument procedures published for use from 26 April 2018 at 901Z to 24 May 2018 at 0900Z.

 
IAPs - Instrument Approach Procedures
RNAV (GPS) RWY 09   download (174KB)
RNAV (GPS) RWY 27   download (188KB)
NOTE: Special Take-Off Minimums/Departure Procedures apply   download (234KB)

Other nearby airports with instrument procedures:

I40 - Richard Downing Airport (14 nm S)
KBJJ - Wayne County Airport (21 nm N)
KPHD - Harry Clever Field Airport (25 nm E)
3G4 - Ashland County Airport (26 nm NW)
4I3 - Knox County Airport (29 nm SW)
 
Loc | Ops | Rwys | IFR | FBO | Links
Com | Nav | Svcs | Stats | Notes

AirNav Hotels Sweepstakes
 
Area around 10G (Holmes County Airport)
 
Road maps at: MapQuest Bing Google
 
Aerial photo
WARNING: Photo may not be current or correct
Aerial photo of 10G (Holmes County Airport)
Do you have a better or more recent aerial photo of Holmes County Airport that you would like to share? If so, please send us your photo.

 
Sectional chart

 
Airport distance calculator
Flying to Holmes County Airport? Find the distance to fly.

From to 10G

Sunrise and sunset
Times for 27-Apr-2018
 Local
(UTC-4)
 Zulu
(UTC)
Morning civil twilight06:0410:04
Sunrise06:3310:33
Sunset20:1800:18
Evening civil twilight20:4700:47

Current date and time
Zulu (UTC)  27-Apr-2018 09:51:52
Local (UTC-4)  27-Apr-2018 05:51:52
 
METAR
KBJJ 
20nm N 
270856Z AUTO 00000KT 10SM CLR 04/03 A2978 RMK AO2 SLP087 T00440028 56013
KPHD 
25nm E 
270853Z AUTO 00000KT 10SM OVC060 07/04 A2979 RMK AO2 SLP087 T00720039 56012
K4I3 
29nm SW 
270937Z AUTO 02005KT 10SM SCT050 08/05 A2978 RMK AO2
KMFD 
31nm NW 
270852Z AUTO 00000KT 10SM OVC048 06/03 A2978 RMK AO2 SLP083 T00610028 56014
KCAK 
32nm NE 
270851Z 10003KT 10SM BKN250 08/02 A2978 RMK AO2 SLP084 T00830022 56014
KZZV 
35nm S 
270853Z AUTO 00000KT 10SM FEW070 08/06 A2977 RMK AO2 SLP079 T00780061 56013
KAKR 
37nm NE 
270854Z AUTO 00000KT 10SM BKN055 07/03 A2978 RMK AO2 SLP083 T00720033 56012
KCDI 
38nm SE 
270935Z AUTO 00000KT 10SM CLR 06/06 A2978 RMK AO2 T00600055
KVTA 
39nm SW 
270854Z AUTO 00000KT 10SM BKN065 08/06 A2977 RMK AO2 SLP079 T00780061 56010
TAF
KMFD 
31nm NW 
270520Z 2706/2806 08004KT P6SM SKC FM271600 25008KT P6SM BKN200 FM272000 26008KT P6SM BKN120 FM280500 26004KT P6SM BKN100
KCAK 
32nm NE 
270520Z 2706/2806 03005KT P6SM BKN250 FM271500 23006KT P6SM OVC200 FM272300 27006KT P6SM OVC120 FM280500 24004KT P6SM BKN045 OVC120
KZZV 
35nm S 
270520Z 2706/2806 VRB02KT P6SM BKN250 FM271800 26008KT P6SM BKN050
NOTAMs
Click for the latest NOTAMs
NOTAMs are issued by the DoD/FAA and will open in a separate window not controlled by AirNav.

 

 
 

FBO, Fuel Providers, and Aircraft Ground Support

  
 Business Name 
 
 Contact 
 
 Services / Description 
 
Fuel Prices
 
Comments
  
Professionals Aviation Company Inc. 330-674-0674
no information available

If you are affiliated with Professionals Aviation Company Inc. and would like to show here your services, contact info, web link, logo, and more, click here
100LL Jet A
FS $4.75 $3.75 
 Updated 17-Apr-2018
 
   2 read write
FS=Full service
Update Fuel Prices
 

Would you like to see your business listed on this page?

 If your business provides an interesting product or service to pilots, flight crews, aircraft, or users of the Holmes County Airport, you should consider listing it here.  To start the listing process, click on the button below
 
Add a business
 

Other Pages about Holmes County Airport

Update a link
 
Copyright © AirNav, LLC. All rights reserved. Privacy Policy  Contact